Hanover, Maine
Current Conditions -  °F | °C
As of 10:52 AM on Thursday 27 Nov 2014 (Local Time) from KBML Reporting Station
Overcast Overcast  
Wind Chill: 21°   Ceiling: 2600
Heat Index: 28°   Visibility: 10mi
Dew Point: 19°   Wind: 7mph
Humidity: 69%   Direction: 320°NW
Pressure: 29.9"   Gusts: NA
Location:  44.5°N, 70.69°W
Report Text: KBML 271552Z AUTO 32006KT 10SM OVC026 M02/M07 A2990 RMK AO2 SLP142 I1001 T10221072
Loading
Personal Weather Stations






























Interactive Weather Map New forecast layout! Learn more

10-Day Weather Forecast

Advertisements
Track Severe Weather on mobile